Time;durP1;ratioP1;P1;durP2;ratioP2;P2;SDS_P1;SDS_P2;PMS_P1;PMS_P2;Temp;Humidity;BMP_temperature;BMP_pressure;BME280_temperature;BME280_humidity;BME280_pressure;Samples;Min_cycle;Max_cycle;Signal;HPM_P1;HPM_P2
2023/06/16 00:02:03;;;;;;;2.85;1.83;;;16.10;1.00;;;;;;5052197;28;20504;-63
2023/06/16 00:04:28;;;;;;;5.20;2.33;;;16.00;1.00;;;;;;5051781;28;20064;-63
2023/06/16 00:06:58;;;;;;;4.03;1.83;;;16.00;1.00;;;;;;5051969;28;20144;-65
2023/06/16 00:09:25;;;;;;;6.93;2.20;;;15.90;1.00;;;;;;5053306;28;20095;-66
2023/06/16 00:11:51;;;;;;;4.50;2.13;;;16.60;1.00;;;;;;5035539;28;20511;-66
2023/06/16 00:14:23;;;;;;;3.50;1.83;;;16.10;1.00;;;;;;5051854;28;20037;-67
2023/06/16 00:16:49;;;;;;;4.15;2.20;;;16.20;1.00;;;;;;5051680;28;20064;-66
2023/06/16 00:19:15;;;;;;;3.08;2.05;;;15.90;1.00;;;;;;5052894;28;20037;-66
2023/06/16 00:21:43;;;;;;;4.35;2.33;;;15.90;1.00;;;;;;5051784;28;20041;-66
2023/06/16 00:24:09;;;;;;;3.47;2.22;;;15.80;1.00;;;;;;5052836;28;20041;-66
2023/06/16 00:26:35;;;;;;;3.35;2.47;;;15.80;1.00;;;;;;5051559;28;20102;-66
2023/06/16 00:29:05;;;;;;;6.75;2.50;;;15.80;1.00;;;;;;5051562;28;20045;-66
2023/06/16 00:31:31;;;;;;;4.70;2.88;;;16.70;1.00;;;;;;5051769;28;20045;-66
2023/06/16 00:34:01;;;;;;;5.60;2.50;;;15.70;1.00;;;;;;5052891;28;20033;-66
2023/06/16 00:36:27;;;;;;;4.40;2.40;;;15.70;1.00;;;;;;5051565;28;20073;-66
2023/06/16 00:38:53;;;;;;;3.42;2.25;;;15.70;1.00;;;;;;5052054;28;20535;-66
2023/06/16 00:41:19;;;;;;;6.15;2.53;;;15.60;1.00;;;;;;5051666;28;20039;-66
2023/06/16 00:43:44;;;;;;;4.53;2.10;;;15.60;1.00;;;;;;5052488;28;20074;-66
2023/06/16 00:46:20;;;;;;;5.10;2.60;;;15.80;1.00;;;;;;5051380;28;20047;-66
2023/06/16 00:48:46;;;;;;;6.63;2.45;;;15.60;1.00;;;;;;5052760;28;20045;-66
2023/06/16 00:51:12;;;;;;;6.50;2.38;;;15.60;1.00;;;;;;5052904;28;20076;-66
2023/06/16 00:53:39;;;;;;;5.38;2.45;;;15.60;1.00;;;;;;5052724;28;20069;-67
2023/06/16 00:56:05;;;;;;;7.22;2.65;;;15.60;1.00;;;;;;5051266;28;20041;-66
2023/06/16 00:58:31;;;;;;;2.85;2.17;;;15.60;1.00;;;;;;5034904;28;20052;-66
2023/06/16 01:00:57;;;;;;;2.80;2.15;;;15.60;1.00;;;;;;5052716;28;20042;-66
2023/06/16 01:03:22;;;;;;;3.38;2.08;;;15.60;1.00;;;;;;5052349;28;20088;-66
2023/06/16 01:05:48;;;;;;;4.68;2.53;;;16.30;1.00;;;;;;5052699;28;20045;-66
2023/06/16 01:08:28;;;;;;;4.82;2.15;;;15.80;1.00;;;;;;5052520;28;20388;-66
2023/06/16 01:11:14;;;;;;;4.53;2.20;;;15.50;1.00;;;;;;5052725;28;20041;-66
2023/06/16 01:13:52;;;;;;;3.97;2.30;;;15.50;1.00;;;;;;5051079;28;20052;-66
2023/06/16 01:16:28;;;;;;;4.18;2.13;;;15.50;1.00;;;;;;5052359;28;20037;-66
2023/06/16 01:18:55;;;;;;;3.85;2.15;;;15.50;1.00;;;;;;5052568;28;20424;-66
2023/06/16 01:21:43;;;;;;;5.15;2.05;;;15.40;1.00;;;;;;5051285;28;20103;-66
2023/06/16 01:24:14;;;;;;;3.78;2.05;;;15.50;1.00;;;;;;5034409;28;20401;-66
2023/06/16 01:26:49;;;;;;;5.43;2.70;;;15.40;1.00;;;;;;5051303;28;20484;-66
2023/06/16 01:29:17;;;;;;;7.75;2.83;;;15.40;1.00;;;;;;5050871;28;20075;-63
2023/06/16 01:31:44;;;;;;;3.10;2.28;;;15.40;1.00;;;;;;5050826;28;20048;-63
2023/06/16 01:34:12;;;;;;;4.90;2.63;;;15.40;1.00;;;;;;5051268;28;20365;-63
2023/06/16 01:36:40;;;;;;;3.70;2.50;;;15.30;1.00;;;;;;5052745;28;20048;-63
2023/06/16 01:39:08;;;;;;;4.85;2.47;;;15.40;1.00;;;;;;5052102;28;20047;-63
2023/06/16 01:41:36;;;;;;;5.10;2.97;;;15.90;1.00;;;;;;5050790;28;20167;-63
2023/06/16 01:44:02;;;;;;;4.90;2.72;;;15.30;1.00;;;;;;5052363;28;20041;-63
2023/06/16 01:46:29;;;;;;;3.63;2.50;;;15.20;1.00;;;;;;5050824;28;20091;-63
2023/06/16 01:48:55;;;;;;;3.97;2.33;;;15.20;1.00;;;;;;5052282;28;20025;-63
2023/06/16 01:51:22;;;;;;;4.35;2.47;;;16.70;2.90;;;;;;5055462;28;20049;-63
2023/06/16 01:53:49;;;;;;;3.78;2.30;;;15.10;1.00;;;;;;5055961;28;20033;-63
2023/06/16 01:56:15;;;;;;;3.92;2.35;;;15.10;6.00;;;;;;5054658;28;20036;-63
2023/06/16 01:58:41;;;;;;;3.05;2.05;;;15.10;10.10;;;;;;5055853;28;20124;-63
2023/06/16 02:01:20;;;;;;;3.38;2.15;;;15.00;16.20;;;;;;5038336;28;20110;-63
2023/06/16 02:03:54;;;;;;;4.22;2.55;;;15.10;27.80;;;;;;5054204;28;20045;-63
2023/06/16 02:06:33;;;;;;;5.20;2.58;;;15.00;24.50;;;;;;5055358;28;20088;-65
2023/06/16 02:09:02;;;;;;;3.67;2.53;;;15.00;30.00;;;;;;5055636;28;20392;-63
2023/06/16 02:11:28;;;;;;;4.32;2.75;;;15.00;20.70;;;;;;5054307;28;20033;-63
2023/06/16 02:13:55;;;;;;;4.05;2.60;;;15.00;31.60;;;;;;5055521;28;20033;-63
2023/06/16 02:16:20;;;;;;;3.40;2.55;;;14.90;65.60;;;;;;5055502;28;20036;-63
2023/06/16 02:18:49;;;;;;;4.10;2.63;;;14.90;73.50;;;;;;5053901;28;20621;-63
2023/06/16 02:21:16;;;;;;;6.10;3.45;;;14.80;85.20;;;;;;5054130;28;20045;-63
2023/06/16 02:23:41;;;;;;;4.00;3.00;;;14.90;91.10;;;;;;5055132;28;20041;-63
2023/06/16 02:26:07;;;;;;;6.97;2.60;;;14.90;99.90;;;;;;5054929;28;20548;-63
2023/06/16 02:28:33;;;;;;;5.78;3.03;;;15.20;99.90;;;;;;5053587;28;20045;-63
2023/06/16 02:30:59;;;;;;;3.75;2.63;;;14.80;99.90;;;;;;5053994;28;20064;-63
2023/06/16 02:33:24;;;;;;;8.45;2.97;;;14.50;99.90;;;;;;5053554;28;20033;-63
2023/06/16 02:35:50;;;;;;;4.30;2.70;;;14.70;99.90;;;;;;5053640;28;20037;-63
2023/06/16 02:38:16;;;;;;;10.27;3.20;;;14.70;99.90;;;;;;5055049;28;20036;-63
2023/06/16 02:40:41;;;;;;;6.63;3.10;;;14.70;99.90;;;;;;5053485;28;20439;-63
2023/06/16 02:43:07;;;;;;;6.47;3.35;;;14.70;99.90;;;;;;5053556;28;20051;-63
2023/06/16 02:45:32;;;;;;;4.93;2.95;;;14.70;99.90;;;;;;5053346;28;20041;-63
2023/06/16 02:47:58;;;;;;;4.47;2.97;;;14.70;99.90;;;;;;5053305;28;20400;-63
2023/06/16 02:50:24;;;;;;;6.32;3.65;;;14.70;99.90;;;;;;5054499;28;20048;-63
2023/06/16 02:52:49;;;;;;;6.43;3.50;;;14.80;99.90;;;;;;5054585;28;20124;-67
2023/06/16 02:55:16;;;;;;;5.47;3.80;;;14.70;99.90;;;;;;5053307;28;20032;-66
2023/06/16 02:57:41;;;;;;;5.57;3.72;;;14.70;99.90;;;;;;5054839;28;20037;-66
2023/06/16 03:00:10;;;;;;;6.95;3.72;;;14.70;99.90;;;;;;5053164;28;20041;-67
2023/06/16 03:02:36;;;;;;;4.70;3.10;;;14.70;99.90;;;;;;5051903;28;20053;-66
2023/06/16 03:05:03;;;;;;;11.90;3.72;;;14.70;99.90;;;;;;5054396;28;20087;-66
2023/06/16 03:07:31;;;;;;;9.52;3.63;;;14.70;99.90;;;;;;5036352;28;20041;-63
2023/06/16 03:09:59;;;;;;;7.53;3.55;;;14.70;99.90;;;;;;5054270;28;20051;-63
2023/06/16 03:12:24;;;;;;;10.18;4.55;;;15.00;99.90;;;;;;5052887;28;20041;-63
2023/06/16 03:14:50;;;;;;;6.97;3.60;;;15.00;99.90;;;;;;5054423;28;20431;-63
2023/06/16 03:17:22;;;;;;;7.80;3.70;;;14.80;99.90;;;;;;5054396;28;20041;-63
2023/06/16 03:19:48;;;;;;;6.57;4.20;;;14.70;1.00;;;;;;5052717;28;20047;-63
2023/06/16 03:22:14;;;;;;;10.48;4.75;;;14.90;99.90;;;;;;5054257;28;20447;-63
2023/06/16 03:24:41;;;;;;;7.70;4.15;;;14.80;1.00;;;;;;5052732;28;20056;-63
2023/06/16 03:27:08;;;;;;;7.30;4.50;;;14.80;1.00;;;;;;5054151;28;20078;-63
2023/06/16 03:29:34;;;;;;;5.78;3.72;;;14.80;99.90;;;;;;5053943;28;20045;-63
2023/06/16 03:32:00;;;;;;;8.57;4.20;;;14.90;99.90;;;;;;5054092;28;20473;-63
2023/06/16 03:34:29;;;;;;;6.10;3.55;;;14.90;1.00;;;;;;5052761;28;20412;-63
2023/06/16 03:36:55;;;;;;;3.85;3.00;;;14.90;99.90;;;;;;5052502;28;20120;-63
2023/06/16 03:39:21;;;;;;;6.65;3.58;;;15.00;99.90;;;;;;5054424;28;20476;-63
2023/06/16 03:41:47;;;;;;;5.15;3.58;;;15.10;99.90;;;;;;5053902;28;20041;-63
2023/06/16 03:44:13;;;;;;;4.60;3.40;;;15.10;1.00;;;;;;5052365;28;20487;-63
2023/06/16 03:46:38;;;;;;;8.90;3.88;;;15.20;48.20;;;;;;5035673;28;20080;-63
2023/06/16 03:49:04;;;;;;;8.10;4.35;;;16.60;1.00;;;;;;5052450;28;20076;-63
2023/06/16 03:51:30;;;;;;;5.40;3.88;;;15.20;99.90;;;;;;5053020;28;20049;-63
2023/06/16 03:53:58;;;;;;;6.75;3.63;;;16.60;1.00;;;;;;5053623;28;20037;-63
2023/06/16 03:56:23;;;;;;;4.68;3.22;;;15.30;1.00;;;;;;5053622;28;20036;-63
2023/06/16 03:58:49;;;;;;;6.38;3.90;;;15.40;35.80;;;;;;5053587;28;20064;-63
2023/06/16 04:01:16;;;;;;;4.45;3.22;;;15.40;1.00;;;;;;5053548;28;20492;-63
2023/06/16 04:03:41;;;;;;;6.60;4.30;;;16.40;1.00;;;;;;5051869;28;20053;-63
2023/06/16 04:06:07;;;;;;;4.95;3.58;;;15.40;1.00;;;;;;5051978;28;20048;-63
2023/06/16 04:08:32;;;;;;;8.23;4.40;;;15.70;99.90;;;;;;5051800;28;20048;-63
2023/06/16 04:10:58;;;;;;;6.45;3.75;;;15.40;99.90;;;;;;5052138;28;20037;-63
2023/06/16 04:13:26;;;;;;;5.15;3.63;;;16.00;99.90;;;;;;5053054;28;20116;-63
2023/06/16 04:15:52;;;;;;;5.20;3.47;;;15.30;99.90;;;;;;5035231;28;20051;-63
2023/06/16 04:18:18;;;;;;;6.72;4.13;;;15.30;99.90;;;;;;5053267;28;20033;-63
2023/06/16 04:20:43;;;;;;;11.48;4.22;;;15.20;99.90;;;;;;5053132;28;20395;-63
2023/06/16 04:23:09;;;;;;;4.68;3.13;;;15.30;99.90;;;;;;5053181;28;20033;-63
2023/06/16 04:25:38;;;;;;;6.30;4.07;;;15.20;1.00;;;;;;5053212;28;20047;-63
2023/06/16 04:28:13;;;;;;;6.50;3.70;;;15.20;99.90;;;;;;5053091;28;20041;-63
2023/06/16 04:30:40;;;;;;;8.60;4.03;;;15.20;22.90;;;;;;5053149;28;20049;-63
2023/06/16 04:33:07;;;;;;;5.63;3.67;;;15.30;1.00;;;;;;5053090;28;20057;-63
2023/06/16 04:35:34;;;;;;;6.43;4.05;;;15.30;99.90;;;;;;5053020;28;20485;-63
2023/06/16 04:38:00;;;;;;;7.93;3.95;;;15.40;28.50;;;;;;5052732;28;20097;-63
2023/06/16 04:40:32;;;;;;;5.45;3.85;;;15.30;1.00;;;;;;5051699;28;20553;-63
2023/06/16 04:42:57;;;;;;;4.82;3.55;;;15.40;1.00;;;;;;5051368;28;20116;-63
2023/06/16 04:45:24;;;;;;;8.25;4.45;;;15.40;1.00;;;;;;5051713;28;20504;-63
2023/06/16 04:47:52;;;;;;;8.63;4.05;;;15.40;1.00;;;;;;5052862;28;20049;-63
2023/06/16 04:50:18;;;;;;;7.63;4.28;;;15.40;1.00;;;;;;5051364;28;20056;-63
2023/06/16 04:52:47;;;;;;;6.72;4.30;;;15.50;99.90;;;;;;5051610;28;20392;-63
2023/06/16 04:55:16;;;;;;;7.28;4.57;;;15.80;99.90;;;;;;5052514;28;20045;-63
2023/06/16 04:57:42;;;;;;;6.93;4.32;;;15.60;99.90;;;;;;5052849;28;20080;-63
2023/06/16 05:00:09;;;;;;;5.85;4.20;;;15.60;99.90;;;;;;5052609;28;20520;-63
2023/06/16 05:02:36;;;;;;;6.63;4.55;;;15.70;99.90;;;;;;5051289;28;20049;-63
2023/06/16 05:05:05;;;;;;;10.40;5.05;;;15.80;99.90;;;;;;5051576;28;20045;-66
2023/06/16 05:07:31;;;;;;;11.05;4.10;;;15.80;99.90;;;;;;5051203;28;20048;-66
2023/06/16 05:09:57;;;;;;;7.40;4.38;;;15.90;99.90;;;;;;5052236;28;20076;-66
2023/06/16 05:12:25;;;;;;;6.63;4.40;;;16.00;99.90;;;;;;5051390;28;20511;-66
2023/06/16 05:14:52;;;;;;;7.78;4.47;;;16.00;99.90;;;;;;5051228;28;20037;-67
2023/06/16 05:17:18;;;;;;;7.00;4.22;;;16.20;1.00;;;;;;5052718;28;20044;-67
2023/06/16 05:19:43;;;;;;;6.38;4.13;;;16.30;1.00;;;;;;5052563;28;20052;-66
2023/06/16 05:22:09;;;;;;;10.25;4.60;;;16.30;1.00;;;;;;5068176;28;20037;-66
2023/06/16 05:24:35;;;;;;;8.32;5.00;;;16.40;99.90;;;;;;5053304;28;20090;-66
2023/06/16 05:27:00;;;;;;;7.75;4.00;;;16.50;99.90;;;;;;5055181;28;20041;-67
2023/06/16 05:29:26;;;;;;;6.55;4.10;;;16.60;99.90;;;;;;5038152;28;20044;-66
2023/06/16 05:31:52;;;;;;;9.48;5.38;;;17.10;99.90;;;;;;5056416;28;20374;-66
2023/06/16 05:34:18;;;;;;;7.72;4.70;;;;;;;;;;5056339;28;20037;-69
2023/06/16 05:36:43;;;;;;;5.95;4.35;;;16.90;99.90;;;;;;5055029;28;20041;-67
2023/06/16 05:39:14;;;;;;;7.15;4.93;;;17.00;99.90;;;;;;5055226;28;20047;-72
2023/06/16 05:41:40;;;;;;;5.70;4.22;;;17.10;99.90;;;;;;5054977;28;20401;-67
2023/06/16 05:44:07;;;;;;;7.45;4.47;;;17.20;99.90;;;;;;5054932;28;20396;-66
2023/06/16 05:46:32;;;;;;;4.78;3.60;;;17.30;99.90;;;;;;5054572;28;20053;-66
2023/06/16 05:49:01;;;;;;;9.10;4.35;;;17.40;99.90;;;;;;5054607;28;20476;-66
2023/06/16 05:51:27;;;;;;;8.25;4.18;;;17.60;99.90;;;;;;5054528;28;20049;-66
2023/06/16 05:53:53;;;;;;;9.48;4.55;;;17.60;99.90;;;;;;5038119;28;20492;-66
2023/06/16 05:56:19;;;;;;;6.50;4.28;;;17.80;99.90;;;;;;5071333;28;20064;-67
2023/06/16 05:58:44;;;;;;;6.05;3.97;;;17.80;99.90;;;;;;5055912;28;20053;-72
2023/06/16 06:01:12;;;;;;;7.03;4.32;;;17.90;91.60;;;;;;5054152;28;20471;-72
2023/06/16 06:03:42;;;;;;;8.57;4.05;;;18.10;74.00;;;;;;5054196;28;20053;-67
2023/06/16 06:06:08;;;;;;;6.57;3.70;;;18.10;66.50;;;;;;5054070;28;20053;-65
2023/06/16 06:08:34;;;;;;;6.18;3.78;;;;;;;;;;5070847;28;20041;-66
2023/06/16 06:11:01;;;;;;;8.95;4.13;;;18.30;32.20;;;;;;5054383;28;20049;-64
2023/06/16 06:13:26;;;;;;;8.05;3.60;;;18.40;38.30;;;;;;5055531;28;20044;-66
2023/06/16 06:15:52;;;;;;;10.30;4.15;;;18.60;88.60;;;;;;5055260;28;20493;-66
2023/06/16 06:18:18;;;;;;;7.78;4.07;;;19.00;99.90;;;;;;5054032;28;20045;-66
2023/06/16 06:20:45;;;;;;;7.63;3.70;;;19.30;99.90;;;;;;5055188;28;20043;-63
2023/06/16 06:23:11;;;;;;;9.18;4.07;;;18.90;99.90;;;;;;5055181;28;20073;-63
2023/06/16 06:25:37;;;;;;;5.13;3.63;;;19.30;99.90;;;;;;5055032;28;20049;-63
2023/06/16 06:28:03;;;;;;;7.82;4.60;;;19.50;99.90;;;;;;5055289;28;20119;-63
2023/06/16 06:30:29;;;;;;;6.68;4.15;;;19.10;99.90;;;;;;5053712;28;20037;-62
2023/06/16 06:32:59;;;;;;;4.57;3.47;;;19.30;99.90;;;;;;5055172;28;20488;-63
2023/06/16 06:35:25;;;;;;;4.97;3.70;;;19.40;99.90;;;;;;5054846;28;20481;-63
2023/06/16 06:37:50;;;;;;;11.13;4.05;;;19.40;99.90;;;;;;5053543;28;20029;-63
2023/06/16 06:40:22;;;;;;;4.95;3.88;;;19.60;99.90;;;;;;5054875;28;20080;-63
2023/06/16 06:42:47;;;;;;;7.70;3.95;;;19.70;99.90;;;;;;5055119;28;20072;-63
2023/06/16 06:45:14;;;;;;;5.00;3.55;;;19.60;99.90;;;;;;5053385;28;20041;-62
2023/06/16 06:47:39;;;;;;;11.18;3.67;;;19.90;99.90;;;;;;5054918;28;20036;-63
2023/06/16 06:50:06;;;;;;;4.43;3.30;;;19.90;94.20;;;;;;5054842;28;20077;-63
2023/06/16 06:52:31;;;;;;;6.97;3.13;;;19.90;97.50;;;;;;5036783;28;20060;-62
2023/06/16 06:54:57;;;;;;;4.93;2.88;;;20.10;91.70;;;;;;5053609;28;20579;-63
2023/06/16 06:57:23;;;;;;;4.90;3.08;;;20.20;98.80;;;;;;5053137;28;20033;-62
2023/06/16 06:59:49;;;;;;;9.30;3.00;;;20.40;99.90;;;;;;5054735;28;20048;-63
2023/06/16 07:02:16;;;;;;;5.38;2.92;;;20.60;99.90;;;;;;5052916;28;20409;-63
2023/06/16 07:04:42;;;;;;;6.28;2.72;;;20.50;99.90;;;;;;5052932;28;20061;-63
2023/06/16 07:07:08;;;;;;;3.75;3.08;;;20.80;99.90;;;;;;5054497;28;20087;-63
2023/06/16 07:09:35;;;;;;;7.53;3.35;;;21.00;99.90;;;;;;5054330;28;20489;-63
2023/06/16 07:12:01;;;;;;;5.05;3.17;;;20.80;99.90;;;;;;5052792;28;20041;-63
2023/06/16 07:14:27;;;;;;;10.60;3.83;;;21.10;99.90;;;;;;5054214;28;20043;-63
2023/06/16 07:16:52;;;;;;;4.78;3.42;;;21.10;99.90;;;;;;5054252;28;20036;-63
2023/06/16 07:19:18;;;;;;;5.50;3.30;;;21.30;99.90;;;;;;5052711;28;20124;-63
2023/06/16 07:21:44;;;;;;;4.82;3.30;;;21.50;99.90;;;;;;5036183;28;20045;-63
2023/06/16 07:24:10;;;;;;;5.22;3.30;;;21.50;99.90;;;;;;5054078;28;20040;-63
2023/06/16 07:26:37;;;;;;;5.90;3.92;;;21.40;1.00;;;;;;5053972;28;20065;-63
2023/06/16 07:29:03;;;;;;;4.78;3.42;;;21.40;1.00;;;;;;5036022;28;20063;-63
2023/06/16 07:31:28;;;;;;;5.80;2.97;;;21.80;1.00;;;;;;5053734;28;20045;-63
2023/06/16 07:33:55;;;;;;;5.95;4.20;;;21.60;1.00;;;;;;5053520;28;20047;-63
2023/06/16 07:36:21;;;;;;;9.02;3.75;;;21.70;1.00;;;;;;5052504;28;20111;-63
2023/06/16 07:38:46;;;;;;;8.07;3.30;;;21.70;1.00;;;;;;5053692;28;20492;-63
2023/06/16 07:41:12;;;;;;;6.47;3.20;;;21.80;1.00;;;;;;5053525;28;20075;-63
2023/06/16 07:43:38;;;;;;;7.72;3.53;;;21.90;1.00;;;;;;5053474;28;20536;-63
2023/06/16 07:46:04;;;;;;;5.35;3.20;;;21.90;1.00;;;;;;5053727;28;20075;-63
2023/06/16 07:48:30;;;;;;;4.90;3.30;;;21.70;1.00;;;;;;5051561;28;20098;-65
2023/06/16 07:50:56;;;;;;;5.35;3.42;;;21.90;1.00;;;;;;5052158;28;20044;-67
2023/06/16 07:53:21;;;;;;;7.97;3.75;;;21.80;1.00;;;;;;5052508;28;20091;-67
2023/06/16 07:55:47;;;;;;;5.20;3.15;;;21.90;1.00;;;;;;5053642;28;20047;-67
2023/06/16 07:58:13;;;;;;;8.27;3.13;;;21.80;1.00;;;;;;5053559;28;20041;-67
2023/06/16 08:00:38;;;;;;;4.85;3.08;;;21.70;1.00;;;;;;5052044;28;20049;-67
2023/06/16 08:03:04;;;;;;;9.10;3.75;;;22.20;1.00;;;;;;5051963;28;20055;-64
2023/06/16 08:05:30;;;;;;;5.72;3.38;;;22.30;1.00;;;;;;5053234;28;20053;-65
2023/06/16 08:07:56;;;;;;;5.22;3.28;;;22.30;1.00;;;;;;5053377;28;20045;-64
2023/06/16 08:10:23;;;;;;;6.35;3.42;;;22.50;1.00;;;;;;5052017;28;20444;-64
2023/06/16 08:12:51;;;;;;;6.63;3.00;;;22.60;1.00;;;;;;5053425;28;20044;-66
2023/06/16 08:15:17;;;;;;;4.95;3.60;;;22.70;1.00;;;;;;5053001;28;20049;-64
2023/06/16 08:17:45;;;;;;;4.50;2.85;;;22.60;1.00;;;;;;5053267;28;20140;-64
2023/06/16 08:20:13;;;;;;;5.03;3.05;;;22.60;1.00;;;;;;5035364;28;20532;-64
2023/06/16 08:22:39;;;;;;;4.65;2.75;;;22.70;1.00;;;;;;5035018;28;20043;-64
2023/06/16 08:25:06;;;;;;;4.25;2.80;;;22.80;1.00;;;;;;5053200;28;20033;-64
2023/06/16 08:27:31;;;;;;;4.72;3.10;;;23.00;1.00;;;;;;5052875;28;20091;-64
2023/06/16 08:29:58;;;;;;;5.07;2.70;;;22.90;1.00;;;;;;5068110;28;20041;-64
2023/06/16 08:32:23;;;;;;;4.72;3.05;;;22.90;1.00;;;;;;5051549;28;20041;-65
2023/06/16 08:34:49;;;;;;;4.03;2.58;;;22.90;1.00;;;;;;5051532;28;20386;-65
2023/06/16 08:37:15;;;;;;;3.42;2.75;;;22.80;1.00;;;;;;5053086;28;20076;-65
2023/06/16 08:39:44;;;;;;;4.05;2.45;;;22.90;1.00;;;;;;5052961;28;20107;-65
2023/06/16 08:42:10;;;;;;;3.30;2.67;;;22.90;1.00;;;;;;5052965;28;20041;-65
2023/06/16 08:44:39;;;;;;;5.43;2.75;;;22.90;1.00;;;;;;5052872;28;20041;-65
2023/06/16 08:47:05;;;;;;;4.28;2.60;;;22.80;1.00;;;;;;5034773;28;20430;-65
2023/06/16 08:49:31;;;;;;;10.00;3.55;;;23.00;1.00;;;;;;5052767;28;20043;-64
2023/06/16 08:52:01;;;;;;;4.68;3.28;;;23.10;1.00;;;;;;5052800;28;20037;-64
2023/06/16 08:54:34;;;;;;;5.07;2.80;;;23.00;1.00;;;;;;5052794;28;20033;-62
2023/06/16 08:57:03;;;;;;;4.85;2.70;;;23.20;1.00;;;;;;5052676;28;20041;-62
2023/06/16 08:59:30;;;;;;;4.32;2.88;;;23.10;1.00;;;;;;5053323;28;20583;-62
2023/06/16 09:01:59;;;;;;;4.30;2.95;;;23.30;1.00;;;;;;5056951;28;20222;-62
2023/06/16 09:04:25;;;;;;;6.15;3.35;;;23.20;1.00;;;;;;5056464;28;20118;-64
2023/06/16 09:06:56;;;;;;;4.38;2.80;;;23.30;1.00;;;;;;5056941;28;20396;-64
2023/06/16 09:09:23;;;;;;;5.00;3.25;;;23.30;1.00;;;;;;5054159;28;20084;-65
2023/06/16 09:12:10;;;;;;;3.63;2.60;;;23.50;1.00;;;;;;5056845;28;20095;-66
2023/06/16 09:14:41;;;;;;;3.15;2.30;;;23.60;1.00;;;;;;5056724;28;20037;-65
2023/06/16 09:17:09;;;;;;;7.32;2.50;;;23.60;1.00;;;;;;5056652;28;20040;-65
2023/06/16 09:19:50;;;;;;;5.13;2.83;;;23.70;1.00;;;;;;5056633;28;20041;-65
2023/06/16 09:22:18;;;;;;;3.25;2.25;;;23.70;1.00;;;;;;5055334;28;20053;-65
2023/06/16 09:24:57;;;;;;;3.65;2.47;;;23.60;1.00;;;;;;5038600;28;20452;-65
2023/06/16 09:27:43;;;;;;;3.20;2.40;;;23.40;1.00;;;;;;5056146;28;20040;-64
2023/06/16 09:30:14;;;;;;;4.57;2.10;;;23.60;1.00;;;;;;5056060;28;20052;-65
2023/06/16 09:32:41;;;;;;;4.22;2.55;;;23.60;1.00;;;;;;5038491;28;20558;-65
2023/06/16 09:35:23;;;;;;;5.10;2.00;;;23.70;1.00;;;;;;5055901;28;20048;-65
2023/06/16 09:37:50;;;;;;;3.78;2.10;;;23.80;1.00;;;;;;5055997;28;20037;-65
2023/06/16 09:40:18;;;;;;;4.18;2.15;;;23.80;1.00;;;;;;5056172;28;20040;-64
2023/06/16 09:42:44;;;;;;;3.38;1.95;;;23.90;1.00;;;;;;5038295;28;20467;-65
2023/06/16 09:45:15;;;;;;;2.80;1.75;;;24.00;1.00;;;;;;5056177;28;20374;-65
2023/06/16 09:47:47;;;;;;;;;;;24.00;1.00;;;;;;5056245;28;20033;-65
2023/06/16 09:50:14;;;;;;;2.58;1.50;;;24.00;1.00;;;;;;5038140;28;19931;-65
2023/06/16 09:52:41;;;;;;;1.92;1.38;;;24.00;1.00;;;;;;5056067;28;20079;-65
2023/06/16 09:55:11;;;;;;;3.00;1.85;;;24.10;1.00;;;;;;5055996;28;20099;-65
2023/06/16 09:57:39;;;;;;;2.10;1.42;;;24.00;1.00;;;;;;5054524;28;20147;-67
2023/06/16 10:00:10;;;;;;;4.22;1.88;;;24.10;1.00;;;;;;5055837;28;20406;-68
2023/06/16 10:02:36;;;;;;;1.80;1.30;;;24.10;1.00;;;;;;5055665;28;20118;-64
2023/06/16 10:05:06;;;;;;;3.75;1.70;;;24.00;1.00;;;;;;5037632;28;20048;-64
2023/06/16 10:07:32;;;;;;;;;;;24.10;1.00;;;;;;5055897;28;20094;-62
2023/06/16 10:10:00;;;;;;;2.33;1.60;;;24.20;1.00;;;;;;5055391;28;19920;-62
2023/06/16 10:12:27;;;;;;;2.42;1.50;;;24.20;1.00;;;;;;5055315;28;20052;-62
2023/06/16 10:14:55;;;;;;;2.72;1.50;;;24.10;1.00;;;;;;5055525;28;20398;-63
2023/06/16 10:17:21;;;;;;;2.55;1.52;;;24.10;1.00;;;;;;5055616;28;20473;-62
2023/06/16 10:19:50;;;;;;;3.55;1.75;;;24.10;1.00;;;;;;5055485;28;20036;-62
2023/06/16 10:22:16;;;;;;;4.10;1.70;;;24.10;1.00;;;;;;5055214;28;20041;-62
2023/06/16 10:24:43;;;;;;;2.05;1.60;;;24.10;1.00;;;;;;5055425;28;20828;-62
2023/06/16 10:27:10;;;;;;;1.80;1.45;;;23.90;1.00;;;;;;5055381;28;20076;-63
2023/06/16 10:29:38;;;;;;;3.78;1.63;;;24.00;1.00;;;;;;5054989;28;20033;-62
2023/06/16 10:32:08;;;;;;;2.25;1.60;;;24.00;1.00;;;;;;5054980;28;20047;-63
2023/06/16 10:34:34;;;;;;;3.38;1.70;;;23.90;1.00;;;;;;5053427;28;20049;-62
2023/06/16 10:37:01;;;;;;;2.15;1.52;;;23.80;1.00;;;;;;5053390;28;20120;-62
2023/06/16 10:39:27;;;;;;;4.32;1.70;;;23.90;1.00;;;;;;5054958;28;20204;-64
2023/06/16 10:42:00;;;;;;;2.75;1.60;;;23.80;1.00;;;;;;5054859;28;20040;-63
2023/06/16 10:44:31;;;;;;;2.63;1.70;;;24.10;1.00;;;;;;5053576;28;20408;-64
2023/06/16 10:47:12;;;;;;;2.47;1.52;;;24.00;1.00;;;;;;5054640;28;20040;-63
2023/06/16 10:49:46;;;;;;;3.33;1.70;;;24.00;1.00;;;;;;5054936;28;20033;-63
2023/06/16 10:52:28;;;;;;;3.15;1.48;;;24.00;1.00;;;;;;5054696;28;20052;-62
2023/06/16 10:54:55;;;;;;;5.53;1.73;;;24.10;1.00;;;;;;5053687;28;20095;-63
2023/06/16 10:57:25;;;;;;;2.58;1.55;;;24.10;1.00;;;;;;5054862;28;20124;-63
2023/06/16 11:00:13;;;;;;;2.08;1.65;;;24.20;1.00;;;;;;5053526;28;20489;-63
2023/06/16 11:02:54;;;;;;;1.90;1.40;;;24.10;1.00;;;;;;5054510;28;20098;-63
2023/06/16 11:05:23;;;;;;;2.40;1.60;;;24.20;1.00;;;;;;5054387;28;20059;-62
2023/06/16 11:08:01;;;;;;;2.45;1.65;;;24.20;1.00;;;;;;5054624;28;20052;-62
2023/06/16 11:10:27;;;;;;;3.08;1.73;;;24.20;1.00;;;;;;5054187;28;20040;-63
2023/06/16 11:12:52;;;;;;;4.40;1.50;;;24.30;1.00;;;;;;5054554;28;20098;-62
2023/06/16 11:15:23;;;;;;;3.00;1.38;;;24.20;1.00;;;;;;5053268;28;20037;-62
2023/06/16 11:17:48;;;;;;;2.70;1.60;;;24.30;1.00;;;;;;5036337;28;20063;-62
2023/06/16 11:20:15;;;;;;;4.60;1.58;;;24.30;1.00;;;;;;5036295;28;20037;-63
2023/06/16 11:22:42;;;;;;;3.03;1.27;;;24.40;1.00;;;;;;5051926;28;20130;-62
2023/06/16 11:25:09;;;;;;;7.40;1.50;;;24.40;1.00;;;;;;5052811;28;20044;-62
2023/06/16 11:27:37;;;;;;;1.90;1.40;;;24.40;1.00;;;;;;5054235;28;20118;-62
2023/06/16 11:30:05;;;;;;;2.30;1.40;;;24.50;1.00;;;;;;5054254;28;20037;-62
2023/06/16 11:32:34;;;;;;;2.72;1.15;;;24.60;1.00;;;;;;5052973;28;20103;-62
2023/06/16 11:35:01;;;;;;;2.15;1.30;;;24.70;1.00;;;;;;5053008;28;20076;-62
2023/06/16 11:37:48;;;;;;;2.15;1.63;;;24.90;1.00;;;;;;5054191;28;20087;-62
2023/06/16 11:40:18;;;;;;;2.75;1.70;;;24.50;1.00;;;;;;5052797;28;20081;-62
2023/06/16 11:42:55;;;;;;;2.38;1.45;;;24.50;1.00;;;;;;5052720;28;20044;-62
2023/06/16 11:45:51;;;;;;;5.45;1.85;;;24.60;1.00;;;;;;5053976;28;20044;-63
2023/06/16 11:48:17;;;;;;;6.40;1.60;;;24.60;1.00;;;;;;5040409;28;20041;-63
2023/06/16 11:50:43;;;;;;;4.03;1.70;;;24.60;1.00;;;;;;5052292;28;20053;-63
2023/06/16 11:53:14;;;;;;;2.83;1.60;;;24.60;1.00;;;;;;5052110;28;20045;-63
2023/06/16 11:55:47;;;;;;;1.92;1.52;;;24.50;1.00;;;;;;5052054;28;20045;-63
2023/06/16 11:58:14;;;;;;;2.08;1.33;;;24.70;1.00;;;;;;5035330;28;20048;-63
2023/06/16 12:00:40;;;;;;;1.73;1.17;;;24.70;1.00;;;;;;5051818;28;20045;-63
2023/06/16 12:03:07;;;;;;;1.98;1.40;;;24.60;1.00;;;;;;5053192;28;20568;-63
2023/06/16 12:05:32;;;;;;;2.33;1.27;;;24.90;1.00;;;;;;5053463;28;20136;-63
2023/06/16 12:08:02;;;;;;;5.25;1.85;;;24.80;1.00;;;;;;5053485;28;20124;-63
2023/06/16 12:10:30;;;;;;;3.17;1.70;;;24.80;1.00;;;;;;5053405;28;20412;-63
2023/06/16 12:12:57;;;;;;;3.00;1.50;;;25.00;1.00;;;;;;5051927;28;20558;-63
2023/06/16 12:15:25;;;;;;;2.35;1.63;;;24.90;1.00;;;;;;5052030;28;20068;-63
2023/06/16 12:17:55;;;;;;;2.40;1.35;;;24.90;1.00;;;;;;5053072;28;20040;-63
2023/06/16 12:20:22;;;;;;;2.40;1.33;;;24.80;1.00;;;;;;5051946;28;20550;-62
2023/06/16 12:22:48;;;;;;;2.42;1.33;;;24.80;1.00;;;;;;5053058;28;20036;-68
2023/06/16 12:25:15;;;;;;;3.92;1.52;;;24.80;1.00;;;;;;5051756;28;20045;-63
2023/06/16 12:27:43;;;;;;;3.08;1.23;;;24.80;1.00;;;;;;5051639;28;20527;-69
2023/06/16 12:30:10;;;;;;;3.42;1.80;;;24.70;1.00;;;;;;5052620;28;20041;-67
2023/06/16 12:32:36;;;;;;;2.33;1.52;;;24.50;1.00;;;;;;5052960;28;20084;-66
2023/06/16 12:35:02;;;;;;;2.90;1.52;;;24.60;1.00;;;;;;5052852;28;20079;-67
2023/06/16 12:37:29;;;;;;;6.00;1.35;;;24.50;1.00;;;;;;5052796;28;20041;-66
2023/06/16 12:40:06;;;;;;;1.92;1.45;;;24.80;1.00;;;;;;5052669;28;20497;-67
2023/06/16 12:42:32;;;;;;;1.92;1.38;;;24.70;1.00;;;;;;5052504;28;20087;-66
2023/06/16 12:45:02;;;;;;;1.45;1.10;;;24.90;1.00;;;;;;5051662;28;20040;-66
2023/06/16 12:47:33;;;;;;;1.73;0.95;;;25.10;1.00;;;;;;5034787;28;20132;-66
2023/06/16 12:50:00;;;;;;;5.55;1.48;;;25.20;1.00;;;;;;5052466;28;20055;-68
2023/06/16 12:52:28;;;;;;;5.28;1.63;;;25.20;1.00;;;;;;5052433;28;20045;-68
2023/06/16 12:54:55;;;;;;;1.63;1.33;;;25.30;1.00;;;;;;5051501;28;20037;-66
2023/06/16 12:57:21;;;;;;;5.43;1.25;;;25.30;1.00;;;;;;5052619;28;20033;-65
2023/06/16 12:59:47;;;;;;;1.98;1.38;;;25.40;1.00;;;;;;5052279;28;20045;-66